sensor_id;sensor_type;location;lat;lon;timestamp;pressure;altitude;pressure_sealevel;temperature;humidity
85016;BME280;75339;50.216;20.512;2024-02-15T00:00:54;99411.05;;;3.21;67.10
85016;BME280;75339;50.216;20.512;2024-02-15T00:03:37;99411.42;;;3.23;67.19
85016;BME280;75339;50.216;20.512;2024-02-15T00:06:04;99411.09;;;3.25;66.94
85016;BME280;75339;50.216;20.512;2024-02-15T00:08:31;99409.88;;;3.25;67.13
85016;BME280;75339;50.216;20.512;2024-02-15T00:10:57;99404.99;;;3.24;67.14
85016;BME280;75339;50.216;20.512;2024-02-15T00:13:24;99411.27;;;3.25;67.02
85016;BME280;75339;50.216;20.512;2024-02-15T00:15:51;99406.23;;;3.26;67.03
85016;BME280;75339;50.216;20.512;2024-02-15T00:18:19;99404.84;;;3.29;66.91
85016;BME280;75339;50.216;20.512;2024-02-15T00:20:46;99405.04;;;3.32;66.64
85016;BME280;75339;50.216;20.512;2024-02-15T00:23:12;99406.61;;;3.33;66.67
85016;BME280;75339;50.216;20.512;2024-02-15T00:25:39;99410.79;;;3.32;66.60
85016;BME280;75339;50.216;20.512;2024-02-15T00:28:11;99408.34;;;3.32;66.78
85016;BME280;75339;50.216;20.512;2024-02-15T00:30:39;99408.16;;;3.31;66.91
85016;BME280;75339;50.216;20.512;2024-02-15T00:33:06;99405.72;;;3.28;66.95
85016;BME280;75339;50.216;20.512;2024-02-15T00:35:36;99410.21;;;3.25;66.74
85016;BME280;75339;50.216;20.512;2024-02-15T00:38:04;99417.31;;;3.21;66.71
85016;BME280;75339;50.216;20.512;2024-02-15T00:40:30;99413.42;;;3.15;66.93
85016;BME280;75339;50.216;20.512;2024-02-15T00:42:58;99416.52;;;3.11;66.89
85016;BME280;75339;50.216;20.512;2024-02-15T00:45:27;99415.62;;;3.09;66.92
85016;BME280;75339;50.216;20.512;2024-02-15T00:47:54;99415.78;;;3.08;67.33
85016;BME280;75339;50.216;20.512;2024-02-15T00:50:22;99412.80;;;3.06;67.20
85016;BME280;75339;50.216;20.512;2024-02-15T00:52:49;99409.85;;;3.05;67.24
85016;BME280;75339;50.216;20.512;2024-02-15T00:55:16;99412.98;;;3.06;67.42
85016;BME280;75339;50.216;20.512;2024-02-15T00:57:43;99410.39;;;3.08;67.98
85016;BME280;75339;50.216;20.512;2024-02-15T01:00:10;99408.33;;;3.11;67.59
85016;BME280;75339;50.216;20.512;2024-02-15T01:02:37;99406.27;;;3.13;67.07
85016;BME280;75339;50.216;20.512;2024-02-15T01:05:04;99397.07;;;3.16;67.17
85016;BME280;75339;50.216;20.512;2024-02-15T01:07:31;99395.71;;;3.19;67.23
85016;BME280;75339;50.216;20.512;2024-02-15T01:09:58;99396.98;;;3.24;66.98
85016;BME280;75339;50.216;20.512;2024-02-15T01:12:24;99329.35;;;2.87;66.98
85016;BME280;75339;50.216;20.512;2024-02-15T01:14:51;99388.31;;;3.32;66.77
85016;BME280;75339;50.216;20.512;2024-02-15T01:17:18;99388.33;;;3.33;66.75
85016;BME280;75339;50.216;20.512;2024-02-15T01:19:45;99390.26;;;3.35;66.85
85016;BME280;75339;50.216;20.512;2024-02-15T01:22:11;99389.92;;;3.37;66.66
85016;BME280;75339;50.216;20.512;2024-02-15T01:24:39;99389.80;;;3.41;66.46
85016;BME280;75339;50.216;20.512;2024-02-15T01:27:06;99391.73;;;3.43;66.62
85016;BME280;75339;50.216;20.512;2024-02-15T01:29:33;99392.09;;;3.44;66.75
85016;BME280;75339;50.216;20.512;2024-02-15T01:32:01;99394.73;;;3.48;66.72
85016;BME280;75339;50.216;20.512;2024-02-15T01:34:29;99395.30;;;3.53;66.67
85016;BME280;75339;50.216;20.512;2024-02-15T01:36:55;99391.81;;;3.55;67.01
85016;BME280;75339;50.216;20.512;2024-02-15T01:39:22;99393.36;;;3.51;67.01
85016;BME280;75339;50.216;20.512;2024-02-15T01:41:49;99395.07;;;3.47;66.81
85016;BME280;75339;50.216;20.512;2024-02-15T01:44:24;99400.45;;;3.44;67.11
85016;BME280;75339;50.216;20.512;2024-02-15T01:46:51;99397.48;;;3.44;67.40
85016;BME280;75339;50.216;20.512;2024-02-15T01:49:21;99400.63;;;3.45;67.41
85016;BME280;75339;50.216;20.512;2024-02-15T01:51:52;99401.16;;;3.47;67.51
85016;BME280;75339;50.216;20.512;2024-02-15T01:54:20;99398.05;;;3.49;67.54
85016;BME280;75339;50.216;20.512;2024-02-15T01:56:47;99396.63;;;3.46;68.22
85016;BME280;75339;50.216;20.512;2024-02-15T01:59:15;99400.96;;;3.44;68.05
85016;BME280;75339;50.216;20.512;2024-02-15T02:01:44;99403.96;;;3.49;67.78
85016;BME280;75339;50.216;20.512;2024-02-15T02:04:14;99408.89;;;3.55;67.87
85016;BME280;75339;50.216;20.512;2024-02-15T02:06:41;99376.23;;;3.43;67.89
85016;BME280;75339;50.216;20.512;2024-02-15T02:09:12;99408.95;;;3.65;68.00
85016;BME280;75339;50.216;20.512;2024-02-15T02:11:41;99409.14;;;3.68;68.45
85016;BME280;75339;50.216;20.512;2024-02-15T02:14:08;99406.38;;;3.71;68.63
85016;BME280;75339;50.216;20.512;2024-02-15T02:16:35;99404.83;;;3.72;68.61
85016;BME280;75339;50.216;20.512;2024-02-15T02:19:02;99406.55;;;3.72;69.39
85016;BME280;75339;50.216;20.512;2024-02-15T02:21:29;99405.50;;;3.69;69.04
85016;BME280;75339;50.216;20.512;2024-02-15T02:23:57;99400.95;;;3.67;69.25
85016;BME280;75339;50.216;20.512;2024-02-15T02:26:25;99398.67;;;3.66;69.42
85016;BME280;75339;50.216;20.512;2024-02-15T02:28:52;99399.73;;;3.66;69.70
85016;BME280;75339;50.216;20.512;2024-02-15T02:31:22;99395.71;;;3.64;69.94
85016;BME280;75339;50.216;20.512;2024-02-15T02:33:51;99394.65;;;3.64;68.96
85016;BME280;75339;50.216;20.512;2024-02-15T02:36:19;99398.85;;;3.65;68.53
85016;BME280;75339;50.216;20.512;2024-02-15T02:38:46;99394.51;;;3.68;68.11
85016;BME280;75339;50.216;20.512;2024-02-15T02:41:16;99397.34;;;3.72;67.93
85016;BME280;75339;50.216;20.512;2024-02-15T02:43:45;99404.70;;;3.78;67.79
85016;BME280;75339;50.216;20.512;2024-02-15T02:46:12;99396.88;;;3.84;67.79
85016;BME280;75339;50.216;20.512;2024-02-15T02:48:40;99400.39;;;3.90;67.91
85016;BME280;75339;50.216;20.512;2024-02-15T02:51:07;99403.04;;;3.95;68.07
85016;BME280;75339;50.216;20.512;2024-02-15T02:53:34;99402.03;;;4.00;67.87
85016;BME280;75339;50.216;20.512;2024-02-15T02:56:00;99403.80;;;4.04;68.07
85016;BME280;75339;50.216;20.512;2024-02-15T02:58:27;99408.52;;;4.06;68.29
85016;BME280;75339;50.216;20.512;2024-02-15T03:00:55;99402.05;;;4.03;68.25
85016;BME280;75339;50.216;20.512;2024-02-15T03:03:25;99417.79;;;4.15;68.31
85016;BME280;75339;50.216;20.512;2024-02-15T03:05:53;99414.86;;;4.21;68.22
85016;BME280;75339;50.216;20.512;2024-02-15T03:08:20;99419.08;;;4.25;68.33
85016;BME280;75339;50.216;20.512;2024-02-15T03:10:48;99420.31;;;4.29;68.36
85016;BME280;75339;50.216;20.512;2024-02-15T03:13:15;99415.98;;;4.32;68.44
85016;BME280;75339;50.216;20.512;2024-02-15T03:15:44;99415.64;;;4.36;68.47
85016;BME280;75339;50.216;20.512;2024-02-15T03:18:17;99419.65;;;4.39;68.45
85016;BME280;75339;50.216;20.512;2024-02-15T03:20:44;99419.31;;;4.41;68.48
85016;BME280;75339;50.216;20.512;2024-02-15T03:23:11;99421.92;;;4.41;68.68
85016;BME280;75339;50.216;20.512;2024-02-15T03:25:38;99417.90;;;4.40;69.16
85016;BME280;75339;50.216;20.512;2024-02-15T03:28:05;99418.09;;;4.37;69.32
85016;BME280;75339;50.216;20.512;2024-02-15T03:30:34;99413.20;;;4.37;69.04
85016;BME280;75339;50.216;20.512;2024-02-15T03:33:01;99415.98;;;4.37;69.22
85016;BME280;75339;50.216;20.512;2024-02-15T03:35:31;99414.60;;;4.38;69.24
85016;BME280;75339;50.216;20.512;2024-02-15T03:37:58;99413.36;;;4.40;69.32
85016;BME280;75339;50.216;20.512;2024-02-15T03:40:25;99415.98;;;4.40;69.18
85016;BME280;75339;50.216;20.512;2024-02-15T03:42:53;99415.46;;;4.36;69.44
85016;BME280;75339;50.216;20.512;2024-02-15T03:45:20;99414.38;;;4.27;69.43
85016;BME280;75339;50.216;20.512;2024-02-15T03:47:52;99416.92;;;4.18;69.88
85016;BME280;75339;50.216;20.512;2024-02-15T03:50:19;99411.49;;;4.12;69.87
85016;BME280;75339;50.216;20.512;2024-02-15T03:52:48;99410.96;;;4.07;69.83
85016;BME280;75339;50.216;20.512;2024-02-15T03:55:15;99408.85;;;4.01;70.14
85016;BME280;75339;50.216;20.512;2024-02-15T03:57:42;99409.52;;;3.97;70.05
85016;BME280;75339;50.216;20.512;2024-02-15T04:00:13;99410.19;;;3.94;70.18
85016;BME280;75339;50.216;20.512;2024-02-15T04:02:41;99410.69;;;3.92;70.33
85016;BME280;75339;50.216;20.512;2024-02-15T04:05:08;99408.05;;;3.89;70.32
85016;BME280;75339;50.216;20.512;2024-02-15T04:07:36;99407.86;;;3.86;70.48
85016;BME280;75339;50.216;20.512;2024-02-15T04:10:04;99411.17;;;3.86;70.58
85016;BME280;75339;50.216;20.512;2024-02-15T04:12:32;99407.33;;;3.85;71.01
85016;BME280;75339;50.216;20.512;2024-02-15T04:15:00;99408.55;;;3.83;71.05
85016;BME280;75339;50.216;20.512;2024-02-15T04:17:38;99408.20;;;3.84;71.07
85016;BME280;75339;50.216;20.512;2024-02-15T04:20:09;99386.69;;;3.70;70.95
85016;BME280;75339;50.216;20.512;2024-02-15T04:22:39;99414.30;;;3.85;71.03
85016;BME280;75339;50.216;20.512;2024-02-15T04:25:09;99411.52;;;3.85;71.05
85016;BME280;75339;50.216;20.512;2024-02-15T04:27:46;99406.81;;;3.83;71.65
85016;BME280;75339;50.216;20.512;2024-02-15T04:30:13;99410.09;;;3.77;72.18
85016;BME280;75339;50.216;20.512;2024-02-15T04:32:42;99407.26;;;3.72;72.14
85016;BME280;75339;50.216;20.512;2024-02-15T04:35:08;99411.58;;;3.68;72.67
85016;BME280;75339;50.216;20.512;2024-02-15T04:37:36;99411.03;;;3.64;72.47
85016;BME280;75339;50.216;20.512;2024-02-15T04:40:08;99411.20;;;3.64;72.36
85016;BME280;75339;50.216;20.512;2024-02-15T04:42:36;99408.44;;;3.66;72.12
85016;BME280;75339;50.216;20.512;2024-02-15T04:45:06;99376.49;;;3.54;71.90
85016;BME280;75339;50.216;20.512;2024-02-15T04:47:40;99405.52;;;3.72;71.92
85016;BME280;75339;50.216;20.512;2024-02-15T04:50:09;99400.15;;;3.75;71.77
85016;BME280;75339;50.216;20.512;2024-02-15T04:52:36;99402.09;;;3.81;72.07
85016;BME280;75339;50.216;20.512;2024-02-15T04:55:03;99402.97;;;3.85;71.95
85016;BME280;75339;50.216;20.512;2024-02-15T04:57:32;99380.82;;;3.77;72.13
85016;BME280;75339;50.216;20.512;2024-02-15T05:00:01;99406.36;;;3.96;72.22
85016;BME280;75339;50.216;20.512;2024-02-15T05:02:28;99407.60;;;3.98;72.42
85016;BME280;75339;50.216;20.512;2024-02-15T05:04:55;99410.41;;;4.01;72.25
85016;BME280;75339;50.216;20.512;2024-02-15T05:07:23;99406.77;;;4.04;72.29
85016;BME280;75339;50.216;20.512;2024-02-15T05:09:49;99410.44;;;4.06;73.18
85016;BME280;75339;50.216;20.512;2024-02-15T05:12:22;99412.35;;;4.05;73.22
85016;BME280;75339;50.216;20.512;2024-02-15T05:14:52;99409.40;;;4.06;72.79
85016;BME280;75339;50.216;20.512;2024-02-15T05:17:19;99411.66;;;4.07;73.83
85016;BME280;75339;50.216;20.512;2024-02-15T05:19:49;99413.05;;;4.04;73.79
85016;BME280;75339;50.216;20.512;2024-02-15T05:22:16;99417.40;;;4.04;73.61
85016;BME280;75339;50.216;20.512;2024-02-15T05:24:45;99419.67;;;4.05;74.77
85016;BME280;75339;50.216;20.512;2024-02-15T05:27:11;99422.47;;;4.06;74.99
85016;BME280;75339;50.216;20.512;2024-02-15T05:29:39;99420.90;;;4.06;74.77
85016;BME280;75339;50.216;20.512;2024-02-15T05:32:08;99423.85;;;4.05;74.31
85016;BME280;75339;50.216;20.512;2024-02-15T05:34:35;99425.95;;;4.07;73.95
85016;BME280;75339;50.216;20.512;2024-02-15T05:37:06;99426.66;;;4.11;73.85
85016;BME280;75339;50.216;20.512;2024-02-15T05:39:37;99426.83;;;4.13;73.50
85016;BME280;75339;50.216;20.512;2024-02-15T05:42:04;99429.98;;;4.11;73.85
85016;BME280;75339;50.216;20.512;2024-02-15T05:44:31;99432.05;;;4.04;73.95
85016;BME280;75339;50.216;20.512;2024-02-15T05:46:58;99433.91;;;3.97;73.98
85016;BME280;75339;50.216;20.512;2024-02-15T05:49:25;99431.59;;;3.89;73.94
85016;BME280;75339;50.216;20.512;2024-02-15T05:51:52;99414.90;;;3.69;74.15
85016;BME280;75339;50.216;20.512;2024-02-15T05:54:20;99438.52;;;3.80;73.98
85016;BME280;75339;50.216;20.512;2024-02-15T05:56:49;99443.39;;;3.80;74.19
85016;BME280;75339;50.216;20.512;2024-02-15T05:59:18;99443.05;;;3.81;74.23
85016;BME280;75339;50.216;20.512;2024-02-15T06:01:47;99442.17;;;3.84;74.08
85016;BME280;75339;50.216;20.512;2024-02-15T06:04:15;99441.32;;;3.87;73.82
85016;BME280;75339;50.216;20.512;2024-02-15T06:06:43;99445.37;;;3.92;73.67
85016;BME280;75339;50.216;20.512;2024-02-15T06:09:09;99443.85;;;3.98;73.78
85016;BME280;75339;50.216;20.512;2024-02-15T06:11:36;99444.78;;;4.06;73.40
85016;BME280;75339;50.216;20.512;2024-02-15T06:14:04;99444.63;;;4.15;73.32
85016;BME280;75339;50.216;20.512;2024-02-15T06:16:42;99442.40;;;4.21;73.10
85016;BME280;75339;50.216;20.512;2024-02-15T06:19:09;99445.94;;;4.28;72.89
85016;BME280;75339;50.216;20.512;2024-02-15T06:21:35;99447.89;;;4.33;72.77
85016;BME280;75339;50.216;20.512;2024-02-15T06:24:02;99445.12;;;4.36;72.44
85016;BME280;75339;50.216;20.512;2024-02-15T06:26:30;99447.03;;;4.37;72.34
85016;BME280;75339;50.216;20.512;2024-02-15T06:28:57;99420.63;;;4.21;72.53
85016;BME280;75339;50.216;20.512;2024-02-15T06:31:42;99450.34;;;4.38;72.44
85016;BME280;75339;50.216;20.512;2024-02-15T06:34:27;99449.81;;;4.40;72.21
85016;BME280;75339;50.216;20.512;2024-02-15T06:37:39;99456.45;;;4.42;72.20
85016;BME280;75339;50.216;20.512;2024-02-15T06:40:25;99454.90;;;4.45;72.32
85016;BME280;75339;50.216;20.512;2024-02-15T06:42:55;99457.36;;;4.47;72.12
85016;BME280;75339;50.216;20.512;2024-02-15T06:45:22;99454.05;;;4.48;72.42
85016;BME280;75339;50.216;20.512;2024-02-15T06:47:51;99457.38;;;4.50;73.57
85016;BME280;75339;50.216;20.512;2024-02-15T06:50:18;99459.13;;;4.51;73.67
85016;BME280;75339;50.216;20.512;2024-02-15T06:52:45;99458.43;;;4.51;73.65
85016;BME280;75339;50.216;20.512;2024-02-15T06:55:12;99457.90;;;4.51;73.71
85016;BME280;75339;50.216;20.512;2024-02-15T06:57:41;99455.98;;;4.51;73.94
85016;BME280;75339;50.216;20.512;2024-02-15T07:00:09;99459.84;;;4.53;73.45
85016;BME280;75339;50.216;20.512;2024-02-15T07:02:41;99457.59;;;4.57;73.37
85016;BME280;75339;50.216;20.512;2024-02-15T07:05:10;99458.31;;;4.63;73.37
85016;BME280;75339;50.216;20.512;2024-02-15T07:07:38;99455.88;;;4.71;72.98
85016;BME280;75339;50.216;20.512;2024-02-15T07:10:05;99457.86;;;4.85;72.68
85016;BME280;75339;50.216;20.512;2024-02-15T07:12:32;99461.19;;;4.97;72.24
85016;BME280;75339;50.216;20.512;2024-02-15T07:15:00;99462.11;;;5.09;72.07
85016;BME280;75339;50.216;20.512;2024-02-15T07:17:30;99464.92;;;5.20;71.86
85016;BME280;75339;50.216;20.512;2024-02-15T07:19:57;99467.55;;;5.27;71.49
85016;BME280;75339;50.216;20.512;2024-02-15T07:22:24;99470.17;;;5.31;71.16
85016;BME280;75339;50.216;20.512;2024-02-15T07:24:51;99468.79;;;5.35;71.10
85016;BME280;75339;50.216;20.512;2024-02-15T07:27:18;99473.16;;;5.39;71.32
85016;BME280;75339;50.216;20.512;2024-02-15T07:29:45;99472.65;;;5.44;71.04
85016;BME280;75339;50.216;20.512;2024-02-15T07:32:12;99472.98;;;5.47;70.90
85016;BME280;75339;50.216;20.512;2024-02-15T07:34:38;99469.31;;;5.53;70.93
85016;BME280;75339;50.216;20.512;2024-02-15T07:37:06;99468.11;;;5.60;70.38
85016;BME280;75339;50.216;20.512;2024-02-15T07:39:33;99465.84;;;5.66;70.08
85016;BME280;75339;50.216;20.512;2024-02-15T07:42:03;99466.52;;;5.75;70.05
85016;BME280;75339;50.216;20.512;2024-02-15T07:44:31;99466.70;;;5.84;69.77
85016;BME280;75339;50.216;20.512;2024-02-15T07:46:58;99466.73;;;5.93;69.67
85016;BME280;75339;50.216;20.512;2024-02-15T07:49:28;99465.48;;;6.03;69.60
85016;BME280;75339;50.216;20.512;2024-02-15T07:51:55;99467.91;;;6.16;69.41
85016;BME280;75339;50.216;20.512;2024-02-15T07:54:23;99468.60;;;6.26;69.32
85016;BME280;75339;50.216;20.512;2024-02-15T07:56:52;99466.11;;;6.32;69.36
85016;BME280;75339;50.216;20.512;2024-02-15T07:59:22;99464.35;;;6.39;69.24
85016;BME280;75339;50.216;20.512;2024-02-15T08:01:49;99466.43;;;6.47;69.08
85016;BME280;75339;50.216;20.512;2024-02-15T08:04:19;99466.25;;;6.52;68.75
85016;BME280;75339;50.216;20.512;2024-02-15T08:06:47;99470.41;;;6.58;68.74
85016;BME280;75339;50.216;20.512;2024-02-15T08:09:15;99469.52;;;6.59;68.27
85016;BME280;75339;50.216;20.512;2024-02-15T08:11:44;99472.33;;;6.60;68.26
85016;BME280;75339;50.216;20.512;2024-02-15T08:14:11;99474.08;;;6.62;68.27
85016;BME280;75339;50.216;20.512;2024-02-15T08:16:38;99478.80;;;6.62;68.35
85016;BME280;75339;50.216;20.512;2024-02-15T08:19:07;99483.17;;;6.60;68.30
85016;BME280;75339;50.216;20.512;2024-02-15T08:21:34;99480.91;;;6.58;68.04
85016;BME280;75339;50.216;20.512;2024-02-15T08:24:04;99478.84;;;6.54;68.08
85016;BME280;75339;50.216;20.512;2024-02-15T08:26:32;99478.34;;;6.48;68.07
85016;BME280;75339;50.216;20.512;2024-02-15T08:28:59;99478.00;;;6.43;68.07
85016;BME280;75339;50.216;20.512;2024-02-15T08:31:26;99482.38;;;6.42;68.51
85016;BME280;75339;50.216;20.512;2024-02-15T08:33:53;99480.80;;;6.42;68.77
85016;BME280;75339;50.216;20.512;2024-02-15T08:36:20;99479.58;;;6.39;69.36
85016;BME280;75339;50.216;20.512;2024-02-15T08:38:48;99477.83;;;6.39;69.69
85016;BME280;75339;50.216;20.512;2024-02-15T08:41:16;99480.27;;;6.39;69.86
85016;BME280;75339;50.216;20.512;2024-02-15T08:43:47;99480.27;;;6.43;69.91
85016;BME280;75339;50.216;20.512;2024-02-15T08:46:16;99480.61;;;6.48;69.71
85016;BME280;75339;50.216;20.512;2024-02-15T08:48:43;99481.11;;;6.56;69.57
85016;BME280;75339;50.216;20.512;2024-02-15T08:51:11;99484.21;;;6.65;69.45
85016;BME280;75339;50.216;20.512;2024-02-15T08:53:38;99480.50;;;6.77;68.73
85016;BME280;75339;50.216;20.512;2024-02-15T08:56:05;99475.36;;;6.89;68.48
85016;BME280;75339;50.216;20.512;2024-02-15T08:58:32;99474.92;;;7.07;68.09
85016;BME280;75339;50.216;20.512;2024-02-15T09:00:59;99473.70;;;7.33;67.62
85016;BME280;75339;50.216;20.512;2024-02-15T09:03:26;99467.85;;;7.67;67.05
85016;BME280;75339;50.216;20.512;2024-02-15T09:05:54;99466.15;;;8.02;66.05
85016;BME280;75339;50.216;20.512;2024-02-15T09:08:22;99475.13;;;8.35;65.45
85016;BME280;75339;50.216;20.512;2024-02-15T09:10:50;99467.54;;;8.56;65.04
85016;BME280;75339;50.216;20.512;2024-02-15T09:13:18;99459.67;;;8.82;64.26
85016;BME280;75339;50.216;20.512;2024-02-15T09:15:44;99467.95;;;8.95;63.16
85016;BME280;75339;50.216;20.512;2024-02-15T09:18:14;99471.03;;;9.00;63.24
85016;BME280;75339;50.216;20.512;2024-02-15T09:20:41;99477.00;;;9.12;62.77
85016;BME280;75339;50.216;20.512;2024-02-15T09:23:11;99478.63;;;9.23;62.38
85016;BME280;75339;50.216;20.512;2024-02-15T09:25:39;99478.27;;;9.34;62.55
85016;BME280;75339;50.216;20.512;2024-02-15T09:28:06;99472.95;;;9.49;62.70
85016;BME280;75339;50.216;20.512;2024-02-15T09:30:32;99472.01;;;9.64;61.98
85016;BME280;75339;50.216;20.512;2024-02-15T09:33:02;99475.70;;;9.86;61.49
85016;BME280;75339;50.216;20.512;2024-02-15T09:35:31;99476.15;;;10.02;61.53
85016;BME280;75339;50.216;20.512;2024-02-15T09:37:58;99479.45;;;10.24;60.89
85016;BME280;75339;50.216;20.512;2024-02-15T09:40:25;99472.23;;;10.36;60.09
85016;BME280;75339;50.216;20.512;2024-02-15T09:42:57;99476.84;;;10.34;60.47
85016;BME280;75339;50.216;20.512;2024-02-15T09:45:29;99476.92;;;10.29;60.19
85016;BME280;75339;50.216;20.512;2024-02-15T09:48:00;99477.28;;;10.16;60.04
85016;BME280;75339;50.216;20.512;2024-02-15T09:50:35;99480.20;;;10.02;60.04
85016;BME280;75339;50.216;20.512;2024-02-15T09:53:03;99478.93;;;9.93;60.78
85016;BME280;75339;50.216;20.512;2024-02-15T09:55:34;99477.23;;;9.79;60.92
85016;BME280;75339;50.216;20.512;2024-02-15T09:58:01;99475.27;;;9.59;61.29
85016;BME280;75339;50.216;20.512;2024-02-15T10:00:28;99472.55;;;9.53;62.01
85016;BME280;75339;50.216;20.512;2024-02-15T10:02:56;99443.52;;;9.54;62.06
85016;BME280;75339;50.216;20.512;2024-02-15T10:05:24;99450.60;;;9.83;61.90
85016;BME280;75339;50.216;20.512;2024-02-15T10:07:52;99462.03;;;10.13;61.37
85016;BME280;75339;50.216;20.512;2024-02-15T10:10:23;99462.98;;;10.21;61.27
85016;BME280;75339;50.216;20.512;2024-02-15T10:12:53;99459.80;;;10.21;61.24
85016;BME280;75339;50.216;20.512;2024-02-15T10:17:59;99457.35;;;10.10;61.69
85016;BME280;75339;50.216;20.512;2024-02-15T10:20:26;99459.61;;;10.12;61.54
85016;BME280;75339;50.216;20.512;2024-02-15T10:23:09;99453.83;;;10.10;61.31
85016;BME280;75339;50.216;20.512;2024-02-15T10:25:37;99456.72;;;9.96;61.31
85016;BME280;75339;50.216;20.512;2024-02-15T10:28:05;99457.48;;;9.82;62.07
85016;BME280;75339;50.216;20.512;2024-02-15T10:30:40;99452.20;;;9.71;62.11
85016;BME280;75339;50.216;20.512;2024-02-15T10:33:10;99451.05;;;9.66;62.39
85016;BME280;75339;50.216;20.512;2024-02-15T10:35:37;99459.88;;;9.64;62.49
85016;BME280;75339;50.216;20.512;2024-02-15T10:38:09;99450.37;;;9.65;62.74
85016;BME280;75339;50.216;20.512;2024-02-15T10:40:37;99449.00;;;9.83;63.38
85016;BME280;75339;50.216;20.512;2024-02-15T10:43:05;99444.50;;;10.20;63.03
85016;BME280;75339;50.216;20.512;2024-02-15T10:45:34;99439.05;;;10.65;62.04
85016;BME280;75339;50.216;20.512;2024-02-15T10:48:01;99438.77;;;10.95;61.13
85016;BME280;75339;50.216;20.512;2024-02-15T10:50:27;99434.51;;;11.13;60.86
85016;BME280;75339;50.216;20.512;2024-02-15T10:52:56;99427.65;;;11.27;60.10
85016;BME280;75339;50.216;20.512;2024-02-15T10:58:26;99430.52;;;11.33;60.11
85016;BME280;75339;50.216;20.512;2024-02-15T11:00:56;99430.44;;;11.28;60.54
85016;BME280;75339;50.216;20.512;2024-02-15T11:03:29;99428.42;;;11.54;60.41
85016;BME280;75339;50.216;20.512;2024-02-15T11:06:02;99420.84;;;12.03;59.00
85016;BME280;75339;50.216;20.512;2024-02-15T11:08:29;99414.64;;;12.24;57.24
85016;BME280;75339;50.216;20.512;2024-02-15T11:10:56;99413.94;;;12.43;57.31
85016;BME280;75339;50.216;20.512;2024-02-15T11:13:25;99413.19;;;12.51;56.73
85016;BME280;75339;50.216;20.512;2024-02-15T11:15:53;99414.79;;;12.50;57.01
85016;BME280;75339;50.216;20.512;2024-02-15T11:18:43;99413.39;;;12.49;57.06
85016;BME280;75339;50.216;20.512;2024-02-15T11:21:18;99410.09;;;12.72;56.14
85016;BME280;75339;50.216;20.512;2024-02-15T11:23:45;99406.73;;;12.90;55.30
85016;BME280;75339;50.216;20.512;2024-02-15T11:26:44;99401.95;;;12.79;55.72
85016;BME280;75339;50.216;20.512;2024-02-15T11:29:48;99394.98;;;13.27;54.84
85016;BME280;75339;50.216;20.512;2024-02-15T11:32:35;99393.61;;;13.85;54.32
85016;BME280;75339;50.216;20.512;2024-02-15T11:35:06;99391.02;;;14.67;52.02
85016;BME280;75339;50.216;20.512;2024-02-15T11:37:53;99383.56;;;15.45;49.74
85016;BME280;75339;50.216;20.512;2024-02-15T11:42:51;99388.40;;;14.90;49.83
85016;BME280;75339;50.216;20.512;2024-02-15T11:45:20;99391.55;;;14.72;51.04
85016;BME280;75339;50.216;20.512;2024-02-15T11:47:50;99384.70;;;15.02;50.56
85016;BME280;75339;50.216;20.512;2024-02-15T11:50:20;99384.08;;;15.23;50.02
85016;BME280;75339;50.216;20.512;2024-02-15T11:52:48;99383.07;;;14.81;49.64
85016;BME280;75339;50.216;20.512;2024-02-15T11:55:20;99384.65;;;13.98;51.30
85016;BME280;75339;50.216;20.512;2024-02-15T11:57:57;99384.79;;;13.25;53.21
85016;BME280;75339;50.216;20.512;2024-02-15T12:00:32;99385.78;;;13.04;54.11
85016;BME280;75339;50.216;20.512;2024-02-15T12:03:22;99381.59;;;13.42;54.08
85016;BME280;75339;50.216;20.512;2024-02-15T12:06:08;99379.09;;;13.54;53.82
85016;BME280;75339;50.216;20.512;2024-02-15T12:08:54;99376.45;;;13.48;53.85
85016;BME280;75339;50.216;20.512;2024-02-15T12:11:40;99374.30;;;13.38;53.62
85016;BME280;75339;50.216;20.512;2024-02-15T12:14:26;99374.77;;;13.35;54.41
85016;BME280;75339;50.216;20.512;2024-02-15T12:17:13;99368.98;;;13.54;54.86
85016;BME280;75339;50.216;20.512;2024-02-15T12:20:03;99371.39;;;13.67;54.55
85016;BME280;75339;50.216;20.512;2024-02-15T12:22:41;99375.81;;;13.51;54.43
85016;BME280;75339;50.216;20.512;2024-02-15T12:25:14;99370.49;;;13.13;54.98
85016;BME280;75339;50.216;20.512;2024-02-15T12:27:44;99372.54;;;12.81;56.36
85016;BME280;75339;50.216;20.512;2024-02-15T12:30:14;99370.38;;;12.64;57.28
85016;BME280;75339;50.216;20.512;2024-02-15T12:32:42;99368.63;;;12.76;57.10
85016;BME280;75339;50.216;20.512;2024-02-15T12:35:13;99369.16;;;12.82;57.38
85016;BME280;75339;50.216;20.512;2024-02-15T12:38:02;99365.42;;;12.76;57.59
85016;BME280;75339;50.216;20.512;2024-02-15T12:40:33;99367.21;;;12.57;57.21
85016;BME280;75339;50.216;20.512;2024-02-15T12:43:00;99368.34;;;12.13;58.06
85016;BME280;75339;50.216;20.512;2024-02-15T12:45:27;99370.23;;;11.81;58.84
85016;BME280;75339;50.216;20.512;2024-02-15T12:47:56;99368.36;;;11.99;58.98
85016;BME280;75339;50.216;20.512;2024-02-15T12:50:28;99366.29;;;12.23;57.79
85016;BME280;75339;50.216;20.512;2024-02-15T12:52:55;99363.91;;;12.31;57.07
85016;BME280;75339;50.216;20.512;2024-02-15T12:55:25;99356.95;;;12.22;57.42
85016;BME280;75339;50.216;20.512;2024-02-15T12:57:53;99358.02;;;12.15;57.36
85016;BME280;75339;50.216;20.512;2024-02-15T13:00:23;99354.61;;;12.24;57.32
85016;BME280;75339;50.216;20.512;2024-02-15T13:02:55;99356.70;;;12.31;57.50
85016;BME280;75339;50.216;20.512;2024-02-15T13:05:22;99353.23;;;12.34;56.44
85016;BME280;75339;50.216;20.512;2024-02-15T13:07:52;99354.05;;;12.36;56.42
85016;BME280;75339;50.216;20.512;2024-02-15T13:10:22;99351.50;;;12.57;56.51
85016;BME280;75339;50.216;20.512;2024-02-15T13:12:51;99350.60;;;13.16;55.81
85016;BME280;75339;50.216;20.512;2024-02-15T13:15:19;99352.71;;;13.33;54.59
85016;BME280;75339;50.216;20.512;2024-02-15T13:17:48;99354.02;;;13.31;54.08